createdAt,value
2023-04-24T00:00:48.852Z,15.30
2023-04-24T00:03:21.432Z,15.40
2023-04-24T00:05:53.635Z,15.50
2023-04-24T00:08:28.919Z,15.70
2023-04-24T00:10:59.941Z,15.80
2023-04-24T00:13:31.520Z,15.90
2023-04-24T00:16:02.431Z,16.10
2023-04-24T00:18:33.899Z,16.30
2023-04-24T00:21:06.011Z,16.50
2023-04-24T00:23:36.934Z,16.60
2023-04-24T00:26:09.732Z,16.80
2023-04-24T00:28:41.394Z,16.90
2023-04-24T00:31:21.472Z,17.10
2023-04-24T00:33:54.913Z,17.20
2023-04-24T00:36:25.969Z,17.30
2023-04-24T00:39:07.245Z,17.50
2023-04-24T00:41:39.969Z,17.60
2023-04-24T00:44:17.423Z,17.70
2023-04-24T00:46:55.210Z,17.80
2023-04-24T00:49:26.312Z,18.00
2023-04-24T00:52:05.158Z,18.10
2023-04-24T00:54:36.802Z,18.30
2023-04-24T00:57:11.145Z,18.30
2023-04-24T01:05:30.666Z,18.60
2023-04-24T01:10:58.351Z,18.60
2023-04-24T01:13:39.706Z,18.60
2023-04-24T01:16:18.830Z,18.70
2023-04-24T01:18:59.773Z,18.90
2023-04-24T01:21:39.528Z,19.00
2023-04-24T01:24:10.954Z,19.10
2023-04-24T01:26:59.083Z,19.30
2023-04-24T01:29:34.826Z,19.40
2023-04-24T01:32:09.125Z,19.60
2023-04-24T01:34:42.378Z,19.70
2023-04-24T01:37:21.938Z,19.80
2023-04-24T01:42:40.220Z,20.00
2023-04-24T01:45:40.458Z,20.10
2023-04-24T01:48:15.417Z,20.10
2023-04-24T01:50:49.530Z,20.00
2023-04-24T01:56:16.836Z,20.20
2023-04-24T01:58:51.259Z,20.30
2023-04-24T02:01:26.618Z,20.40
2023-04-24T02:04:08.926Z,20.40
2023-04-24T02:06:44.328Z,20.40
2023-04-24T02:09:17.038Z,20.50
2023-04-24T02:11:47.301Z,20.50
2023-04-24T02:14:24.215Z,20.60
2023-04-24T02:16:59.506Z,20.60
2023-04-24T02:19:35.819Z,20.70
2023-04-24T02:22:13.516Z,20.80
2023-04-24T02:24:43.858Z,20.80
2023-04-24T02:27:23.669Z,20.80
2023-04-24T02:30:02.307Z,20.80
2023-04-24T02:32:33.530Z,20.90
2023-04-24T02:35:07.463Z,20.90
2023-04-24T02:37:46.546Z,20.90
2023-04-24T02:40:17.504Z,20.90
2023-04-24T02:42:48.261Z,20.80
2023-04-24T02:48:16.115Z,20.90
2023-04-24T02:50:51.869Z,21.00
2023-04-24T02:53:22.515Z,20.90
2023-04-24T02:55:53.272Z,20.90
2023-04-24T03:01:07.971Z,20.70
2023-04-24T03:06:34.428Z,20.80
2023-04-24T03:09:06.055Z,20.90
2023-04-24T03:11:36.861Z,21.00
2023-04-24T03:14:15.816Z,21.10
2023-04-24T03:16:49.373Z,21.20
2023-04-24T03:19:23.531Z,21.30
2023-04-24T03:22:08.991Z,21.30
2023-04-24T03:27:44.202Z,21.40
2023-04-24T03:30:26.407Z,21.40
2023-04-24T03:32:57.343Z,21.30
2023-04-24T03:35:27.880Z,21.30
2023-04-24T03:37:58.338Z,21.30
2023-04-24T03:40:40.192Z,21.30
2023-04-24T03:43:10.584Z,21.30
2023-04-24T03:45:57.571Z,21.30
2023-04-24T03:48:27.864Z,21.30
2023-04-24T03:50:58.844Z,21.30
2023-04-24T03:53:30.033Z,21.30
2023-04-24T03:56:00.561Z,21.30
2023-04-24T04:01:26.407Z,21.20
2023-04-24T04:04:08.230Z,21.10
2023-04-24T04:06:38.978Z,21.10
2023-04-24T04:09:11.303Z,21.10
2023-04-24T04:12:13.464Z,21.10
2023-04-24T04:15:04.021Z,21.10
2023-04-24T04:17:35.898Z,21.10
2023-04-24T04:20:13.065Z,21.10
2023-04-24T04:22:44.737Z,21.10
2023-04-24T04:25:17.638Z,21.10
2023-04-24T04:28:06.501Z,21.10
2023-04-24T04:30:44.387Z,21.10
2023-04-24T04:33:21.491Z,21.10
2023-04-24T04:35:59.551Z,21.10
2023-04-24T04:38:32.624Z,21.10
2023-04-24T04:41:02.929Z,21.00
2023-04-24T04:43:33.732Z,21.00
2023-04-24T04:46:06.436Z,20.90
2023-04-24T04:48:37.156Z,20.90
2023-04-24T04:51:09.115Z,20.80
2023-04-24T04:53:40.661Z,20.80
2023-04-24T04:56:11.584Z,20.80
2023-04-24T04:58:42.227Z,20.70
2023-04-24T05:01:13.102Z,20.60
2023-04-24T05:03:44.062Z,20.60
2023-04-24T05:06:15.882Z,20.60
2023-04-24T05:08:46.738Z,20.60
2023-04-24T05:11:17.997Z,20.50
2023-04-24T05:13:58.712Z,20.50
2023-04-24T05:16:30.829Z,20.40
2023-04-24T05:19:01.749Z,20.40
2023-04-24T05:21:32.356Z,20.30
2023-04-24T05:24:03.121Z,20.30
2023-04-24T05:26:33.787Z,20.30
2023-04-24T05:29:08.752Z,20.30
2023-04-24T05:31:39.043Z,20.30
2023-04-24T05:34:09.767Z,20.30
2023-04-24T05:36:40.681Z,20.20
2023-04-24T05:39:11.718Z,20.10
2023-04-24T05:41:42.373Z,20.10
2023-04-24T05:44:13.587Z,20.00
2023-04-24T05:46:45.257Z,20.00
2023-04-24T05:49:16.320Z,19.90
2023-04-24T05:51:48.006Z,19.80
2023-04-24T05:54:19.627Z,19.80
2023-04-24T05:56:54.156Z,19.80
2023-04-24T05:59:25.976Z,19.70
2023-04-24T06:01:56.578Z,19.70
2023-04-24T06:04:38.002Z,19.70
2023-04-24T06:07:09.512Z,19.70
2023-04-24T06:09:40.492Z,19.60
2023-04-24T06:14:54.934Z,19.50
2023-04-24T06:17:25.984Z,19.50
2023-04-24T06:19:56.853Z,19.40
2023-04-24T06:22:27.789Z,19.40
2023-04-24T06:24:59.883Z,19.30
2023-04-24T06:27:33.389Z,19.30
2023-04-24T06:30:04.134Z,19.20
2023-04-24T06:32:35.231Z,19.20
2023-04-24T06:35:08.103Z,19.20
2023-04-24T06:37:39.031Z,19.10
2023-04-24T06:40:13.502Z,19.00
2023-04-24T06:42:44.237Z,18.90
2023-04-24T06:45:15.187Z,18.90
2023-04-24T06:47:45.842Z,18.80
2023-04-24T06:50:16.808Z,18.70
2023-04-24T06:52:51.986Z,18.70
2023-04-24T06:55:43.022Z,18.60
2023-04-24T07:01:10.277Z,18.50
2023-04-24T07:03:49.011Z,18.40
2023-04-24T07:06:51.283Z,18.40
2023-04-24T07:09:32.983Z,18.30
2023-04-24T07:12:20.042Z,18.20
2023-04-24T07:14:51.284Z,18.10
2023-04-24T07:29:52.835Z,17.50
2023-04-24T07:32:26.084Z,17.40
2023-04-24T07:34:56.702Z,17.20
2023-04-24T07:37:30.277Z,17.10
2023-04-24T07:40:01.574Z,16.90
2023-04-24T07:42:39.474Z,16.80
2023-04-24T07:45:11.789Z,16.80
2023-04-24T07:47:46.932Z,16.60
2023-04-24T07:50:20.194Z,16.60
2023-04-24T07:52:54.569Z,16.50
2023-04-24T07:55:27.897Z,16.40
2023-04-24T07:57:59.038Z,16.40
2023-04-24T08:00:31.560Z,16.30
2023-04-24T08:03:05.659Z,16.30
2023-04-24T08:05:45.099Z,16.30
2023-04-24T08:08:24.751Z,16.20
2023-04-24T08:11:10.245Z,16.20
2023-04-24T08:13:41.216Z,16.20
2023-04-24T08:16:17.266Z,16.10
2023-04-24T08:18:48.056Z,16.00
2023-04-24T08:21:29.015Z,16.00
2023-04-24T08:26:42.091Z,15.90
2023-04-24T08:29:13.001Z,15.80
2023-04-24T08:31:47.033Z,15.80
2023-04-24T08:34:17.349Z,15.70
2023-04-24T08:36:49.237Z,15.70
2023-04-24T08:39:20.969Z,15.60
2023-04-24T08:41:56.954Z,15.60
2023-04-24T08:44:27.864Z,15.50
2023-04-24T08:46:58.676Z,15.50
2023-04-24T08:49:31.840Z,15.40
2023-04-24T08:52:03.457Z,15.40
2023-04-24T08:54:34.778Z,15.30
2023-04-24T08:57:07.753Z,15.30
2023-04-24T08:59:43.607Z,15.20
2023-04-24T09:02:15.106Z,15.10
2023-04-24T09:04:48.115Z,15.10
2023-04-24T09:07:23.317Z,15.00
2023-04-24T09:09:55.646Z,15.00
2023-04-24T09:12:28.534Z,14.90
2023-04-24T09:15:00.384Z,14.80
2023-04-24T09:17:33.648Z,14.70
2023-04-24T09:20:08.762Z,14.70
2023-04-24T09:22:41.868Z,14.60
2023-04-24T09:25:15.744Z,14.60
2023-04-24T09:27:51.946Z,14.50
2023-04-24T09:30:29.440Z,14.40
2023-04-24T09:33:19.347Z,14.40
2023-04-24T09:35:56.451Z,14.30
2023-04-24T09:38:39.241Z,14.30
2023-04-24T09:41:14.032Z,14.20
2023-04-24T09:43:44.949Z,14.20
2023-04-24T09:46:16.607Z,14.10
2023-04-24T09:48:50.502Z,14.10
2023-04-24T09:51:36.447Z,14.10
2023-04-24T09:54:13.334Z,14.10
2023-04-24T09:56:47.237Z,14.00
2023-04-24T09:59:22.908Z,14.00
2023-04-24T10:01:53.797Z,14.00
2023-04-24T10:04:27.509Z,14.00
2023-04-24T10:07:00.134Z,13.90
2023-04-24T10:09:32.306Z,13.90
2023-04-24T10:12:05.294Z,13.90
2023-04-24T10:14:36.225Z,13.80
2023-04-24T10:17:07.789Z,13.80
2023-04-24T10:19:39.223Z,13.80
2023-04-24T10:22:16.111Z,13.80
2023-04-24T10:24:47.439Z,13.70
2023-04-24T10:27:19.569Z,13.60
2023-04-24T10:29:53.201Z,13.60
2023-04-24T10:32:24.086Z,13.60
2023-04-24T10:34:55.121Z,13.50
2023-04-24T10:37:32.303Z,13.50
2023-04-24T10:40:03.540Z,13.50
2023-04-24T10:42:35.395Z,13.50
2023-04-24T10:45:26.262Z,13.50
2023-04-24T10:48:19.319Z,13.50
2023-04-24T10:50:54.817Z,13.40
2023-04-24T10:53:29.876Z,13.40
2023-04-24T10:56:01.806Z,13.40
2023-04-24T10:58:47.598Z,13.40
2023-04-24T11:01:37.990Z,13.40
2023-04-24T11:04:08.870Z,13.40
2023-04-24T11:06:40.724Z,13.40
2023-04-24T11:09:17.026Z,13.30
2023-04-24T11:11:51.471Z,13.30
2023-04-24T11:14:23.396Z,13.20
2023-04-24T11:16:58.735Z,13.20
2023-04-24T11:19:37.531Z,13.20
2023-04-24T11:22:17.452Z,13.20
2023-04-24T11:24:52.545Z,13.20
2023-04-24T11:27:24.891Z,13.10
2023-04-24T11:30:03.048Z,13.10
2023-04-24T11:32:41.093Z,13.10
2023-04-24T11:35:28.855Z,13.10
2023-04-24T11:40:34.255Z,13.00
2023-04-24T11:43:07.619Z,13.10
2023-04-24T11:45:38.648Z,13.10
2023-04-24T11:48:09.385Z,13.00
2023-04-24T11:50:40.099Z,13.00
2023-04-24T11:53:11.089Z,13.00
2023-04-24T11:55:42.961Z,13.00
2023-04-24T11:58:15.658Z,13.00
2023-04-24T12:00:46.469Z,12.90
2023-04-24T12:03:18.604Z,13.00
2023-04-24T12:05:49.481Z,13.00
2023-04-24T12:08:37.845Z,12.90
2023-04-24T12:11:11.171Z,12.90
2023-04-24T12:13:42.185Z,12.90
2023-04-24T12:16:12.968Z,12.80
2023-04-24T12:18:53.303Z,12.80
2023-04-24T12:21:25.817Z,12.90
2023-04-24T12:23:59.257Z,12.90
2023-04-24T12:26:32.323Z,12.90
2023-04-24T12:29:08.618Z,13.00
2023-04-24T12:31:39.377Z,13.10
2023-04-24T12:34:25.333Z,13.10
2023-04-24T12:36:56.090Z,13.20
2023-04-24T12:39:29.745Z,13.30
2023-04-24T12:42:03.947Z,13.30
2023-04-24T12:44:40.685Z,13.30
2023-04-24T12:47:12.536Z,13.30
2023-04-24T12:49:44.536Z,13.30
2023-04-24T12:52:15.406Z,13.40
2023-04-24T12:54:46.112Z,13.40
2023-04-24T12:57:17.072Z,13.40
2023-04-24T12:59:48.787Z,13.50
2023-04-24T13:02:23.582Z,13.50
2023-04-24T13:04:55.570Z,13.40
2023-04-24T13:07:26.473Z,13.40
2023-04-24T13:09:58.417Z,13.40
2023-04-24T13:12:29.190Z,13.40
2023-04-24T13:14:59.513Z,13.30
2023-04-24T13:17:29.897Z,13.20
2023-04-24T13:20:00.238Z,13.10
2023-04-24T13:22:31.114Z,13.10
2023-04-24T13:25:04.328Z,13.00
2023-04-24T13:27:36.246Z,12.90
2023-04-24T13:30:08.880Z,12.80
2023-04-24T13:32:41.603Z,12.70
2023-04-24T13:35:12.768Z,12.70
2023-04-24T13:37:43.900Z,12.60
2023-04-24T13:40:15.008Z,12.50
2023-04-24T13:42:46.451Z,12.50
2023-04-24T13:45:24.721Z,12.40
2023-04-24T13:48:00.390Z,12.40
2023-04-24T13:50:31.128Z,12.30
2023-04-24T13:53:03.278Z,12.20
2023-04-24T13:55:34.078Z,12.20
2023-04-24T13:58:04.320Z,12.20
2023-04-24T14:00:35.263Z,12.10
2023-04-24T14:03:05.868Z,12.10
2023-04-24T14:05:37.783Z,12.00
2023-04-24T14:08:09.134Z,11.90
2023-04-24T14:10:40.213Z,11.90
2023-04-24T14:13:10.876Z,11.90
2023-04-24T14:15:41.698Z,11.80
2023-04-24T14:18:12.765Z,11.80
2023-04-24T14:20:43.989Z,11.70
2023-04-24T14:23:15.730Z,11.70
2023-04-24T14:25:49.480Z,11.70
2023-04-24T14:28:20.639Z,11.60
2023-04-24T14:30:51.624Z,11.60
2023-04-24T14:33:22.913Z,11.50
2023-04-24T14:35:53.728Z,11.50
2023-04-24T14:38:25.784Z,11.40
2023-04-24T14:41:06.460Z,11.40
2023-04-24T14:43:38.800Z,11.30
2023-04-24T14:46:09.265Z,11.30
2023-04-24T14:48:40.048Z,11.30
2023-04-24T14:51:11.169Z,11.30
2023-04-24T14:53:41.408Z,11.30
2023-04-24T14:56:11.854Z,11.20
2023-04-24T14:58:42.312Z,11.20
2023-04-24T15:01:12.833Z,11.10
2023-04-24T15:03:43.793Z,11.10
2023-04-24T15:06:14.382Z,11.10
2023-04-24T15:08:46.934Z,11.10
2023-04-24T15:11:19.478Z,11.10
2023-04-24T15:13:50.238Z,11.00
2023-04-24T15:16:22.871Z,11.00
2023-04-24T15:18:53.628Z,11.00
2023-04-24T15:21:24.257Z,10.90
2023-04-24T15:23:55.102Z,10.90
2023-04-24T15:26:29.457Z,10.90
2023-04-24T15:29:00.214Z,10.80
2023-04-24T15:31:32.139Z,10.80
2023-04-24T15:34:04.901Z,10.80
2023-04-24T15:36:35.772Z,10.70
2023-04-24T15:39:08.435Z,10.70
2023-04-24T15:41:40.625Z,10.60
2023-04-24T15:44:13.502Z,10.60
2023-04-24T15:46:45.644Z,10.60
2023-04-24T15:49:16.236Z,10.60
2023-04-24T15:51:47.199Z,10.50
2023-04-24T15:54:18.050Z,10.50
2023-04-24T15:56:49.782Z,10.50
2023-04-24T15:59:21.287Z,10.50
2023-04-24T16:01:53.053Z,10.40
2023-04-24T16:04:25.160Z,10.40
2023-04-24T16:06:56.470Z,10.30
2023-04-24T16:09:28.008Z,10.30
2023-04-24T16:11:58.861Z,10.30
2023-04-24T16:14:30.229Z,10.30
2023-04-24T16:17:03.254Z,10.30
2023-04-24T16:19:36.181Z,10.20
2023-04-24T16:22:09.005Z,10.20
2023-04-24T16:24:39.719Z,10.20
2023-04-24T16:27:10.407Z,10.20
2023-04-24T16:29:41.192Z,10.10
2023-04-24T16:32:14.452Z,10.10
2023-04-24T16:34:45.570Z,10.10
2023-04-24T16:37:16.943Z,10.10
2023-04-24T16:39:47.857Z,10.00
2023-04-24T16:42:20.550Z,10.00
2023-04-24T16:44:51.178Z,10.00
2023-04-24T16:47:22.549Z,9.90
2023-04-24T16:49:53.686Z,9.90
2023-04-24T16:52:24.399Z,9.90
2023-04-24T16:54:56.104Z,9.90
2023-04-24T16:57:27.135Z,9.80
2023-04-24T16:59:58.076Z,9.80
2023-04-24T17:02:29.244Z,9.80
2023-04-24T17:05:01.319Z,9.70
2023-04-24T17:07:33.148Z,9.70
2023-04-24T17:10:03.912Z,9.60
2023-04-24T17:12:34.591Z,9.60
2023-04-24T17:15:07.845Z,9.60
2023-04-24T17:17:39.233Z,9.50
2023-04-24T17:20:21.381Z,9.50
2023-04-24T17:22:54.142Z,9.50
2023-04-24T17:25:26.005Z,9.50
2023-04-24T17:27:58.464Z,9.40
2023-04-24T17:30:29.084Z,9.40
2023-04-24T17:32:59.868Z,9.30
2023-04-24T17:35:31.221Z,9.30
2023-04-24T17:38:03.302Z,9.30
2023-04-24T17:40:33.956Z,9.20
2023-04-24T17:43:08.116Z,9.20
2023-04-24T17:45:39.683Z,9.20
2023-04-24T17:48:10.985Z,9.10
2023-04-24T17:50:41.808Z,9.10
2023-04-24T17:53:16.111Z,9.10
2023-04-24T17:55:48.382Z,9.00
2023-04-24T17:58:21.135Z,9.00
2023-04-24T18:00:53.421Z,8.90
2023-04-24T18:03:24.285Z,8.90
2023-04-24T18:05:55.140Z,8.90
2023-04-24T18:08:35.111Z,8.80
2023-04-24T18:11:07.541Z,8.80
2023-04-24T18:13:38.885Z,8.80
2023-04-24T18:16:11.417Z,8.80
2023-04-24T18:18:42.667Z,8.70
2023-04-24T18:21:13.618Z,8.70
2023-04-24T18:23:44.692Z,8.70
2023-04-24T18:26:20.407Z,8.70
2023-04-24T18:28:51.510Z,8.70
2023-04-24T18:31:23.836Z,8.60
2023-04-24T18:33:56.446Z,8.60
2023-04-24T18:36:28.014Z,8.60
2023-04-24T18:38:59.153Z,8.60
2023-04-24T18:41:30.746Z,8.50
2023-04-24T18:44:01.480Z,8.50
2023-04-24T18:46:33.364Z,8.50
2023-04-24T18:49:04.002Z,8.40
2023-04-24T18:51:46.484Z,8.50
2023-04-24T18:54:22.380Z,8.40
2023-04-24T18:56:53.750Z,8.40
2023-04-24T18:59:24.716Z,8.40
2023-04-24T19:01:55.543Z,8.30
2023-04-24T19:04:26.344Z,8.30
2023-04-24T19:06:57.160Z,8.30
2023-04-24T19:09:27.910Z,8.20
2023-04-24T19:11:58.687Z,8.20
2023-04-24T19:14:30.660Z,8.20
2023-04-24T19:17:05.734Z,8.20
2023-04-24T19:19:36.399Z,8.10
2023-04-24T19:22:07.444Z,8.10
2023-04-24T19:24:38.240Z,8.10
2023-04-24T19:27:08.856Z,8.00
2023-04-24T19:29:39.736Z,8.00
2023-04-24T19:32:10.985Z,8.00
2023-04-24T19:34:41.696Z,7.90
2023-04-24T19:37:12.578Z,7.90
2023-04-24T19:39:43.741Z,7.90
2023-04-24T19:42:14.315Z,7.90
2023-04-24T19:44:45.643Z,7.80
2023-04-24T19:47:16.512Z,7.80
2023-04-24T19:49:47.331Z,7.80
2023-04-24T19:52:18.493Z,7.80
2023-04-24T19:54:49.326Z,7.80
2023-04-24T19:57:20.907Z,7.70
2023-04-24T19:59:51.885Z,7.70
2023-04-24T20:02:22.799Z,7.70
2023-04-24T20:04:54.195Z,7.60
2023-04-24T20:07:25.189Z,7.60
2023-04-24T20:09:56.204Z,7.60
2023-04-24T20:12:27.018Z,7.60
2023-04-24T20:14:57.399Z,7.60
2023-04-24T20:17:28.553Z,7.60
2023-04-24T20:20:00.506Z,7.50
2023-04-24T20:22:32.809Z,7.50
2023-04-24T20:25:05.202Z,7.50
2023-04-24T20:27:35.980Z,7.40
2023-04-24T20:30:09.175Z,7.40
2023-04-24T20:32:40.899Z,7.40
2023-04-24T20:35:13.106Z,7.30
2023-04-24T20:37:43.911Z,7.30
2023-04-24T20:40:16.282Z,7.30
2023-04-24T20:42:48.477Z,7.30
2023-04-24T20:45:21.789Z,7.30
2023-04-24T20:47:53.029Z,7.20
2023-04-24T20:50:25.230Z,7.30
2023-04-24T20:52:56.197Z,7.30
2023-04-24T20:55:29.004Z,7.30
2023-04-24T20:57:59.694Z,7.30
2023-04-24T21:00:31.462Z,7.30
2023-04-24T21:03:02.246Z,7.40
2023-04-24T21:05:33.263Z,7.40
2023-04-24T21:08:04.164Z,7.50
2023-04-24T21:10:35.128Z,7.60
2023-04-24T21:13:06.063Z,7.70
2023-04-24T21:15:37.633Z,7.70
2023-04-24T21:18:08.738Z,7.80
2023-04-24T21:20:39.650Z,7.90
2023-04-24T21:23:11.314Z,7.90
2023-04-24T21:25:43.661Z,7.90
2023-04-24T21:28:14.493Z,8.00
2023-04-24T21:30:46.309Z,8.00
2023-04-24T21:33:16.965Z,8.00
2023-04-24T21:35:48.808Z,8.10
2023-04-24T21:38:28.366Z,8.20
2023-04-24T21:40:59.348Z,8.30
2023-04-24T21:43:43.485Z,8.40
2023-04-24T21:46:15.708Z,8.50
2023-04-24T21:48:48.048Z,8.60
2023-04-24T21:51:20.505Z,8.70
2023-04-24T21:53:51.611Z,8.70
2023-04-24T21:56:23.286Z,8.80
2023-04-24T21:58:56.096Z,8.80
2023-04-24T22:01:27.279Z,8.90
2023-04-24T22:03:58.157Z,9.00
2023-04-24T22:06:29.752Z,9.00
2023-04-24T22:09:01.633Z,9.10
2023-04-24T22:11:32.702Z,9.20
2023-04-24T22:14:05.503Z,9.20
2023-04-24T22:16:38.581Z,9.30
2023-04-24T22:19:10.670Z,9.40
2023-04-24T22:21:43.149Z,9.40
2023-04-24T22:24:14.811Z,9.50
2023-04-24T22:26:46.448Z,9.60
2023-04-24T22:29:17.292Z,9.60
2023-04-24T22:31:49.204Z,9.70
2023-04-24T22:34:20.562Z,9.80
2023-04-24T22:36:51.252Z,9.90
2023-04-24T22:39:22.378Z,9.90
2023-04-24T22:41:53.544Z,10.00
2023-04-24T22:44:24.746Z,10.10
2023-04-24T22:46:57.765Z,10.10
2023-04-24T22:49:29.275Z,10.20
2023-04-24T22:52:00.438Z,10.30
2023-04-24T22:54:31.101Z,10.40
2023-04-24T22:57:02.036Z,10.50
2023-04-24T22:59:32.837Z,10.60
2023-04-24T23:02:04.778Z,10.60
2023-04-24T23:04:36.358Z,10.70
2023-04-24T23:07:07.632Z,10.80
2023-04-24T23:09:39.282Z,10.90
2023-04-24T23:12:10.353Z,11.10
2023-04-24T23:14:43.466Z,11.20
2023-04-24T23:17:15.882Z,11.30
2023-04-24T23:19:46.502Z,11.40
2023-04-24T23:22:18.176Z,11.50
2023-04-24T23:24:49.234Z,11.60
2023-04-24T23:27:20.438Z,11.70
2023-04-24T23:29:51.373Z,11.80
2023-04-24T23:32:22.383Z,11.90
2023-04-24T23:34:53.372Z,12.00
2023-04-24T23:37:24.509Z,12.10
2023-04-24T23:39:56.961Z,12.20
2023-04-24T23:42:27.999Z,12.40
2023-04-24T23:44:58.252Z,12.50
2023-04-24T23:47:29.448Z,12.60
2023-04-24T23:50:00.320Z,12.80
2023-04-24T23:52:31.220Z,13.00
2023-04-24T23:55:02.007Z,13.10
2023-04-24T23:57:33.226Z,13.30
